Time,TemperatureF,DewpointF,PressureIn,WindDirection,WindDirectionDegrees,WindSpeedMPH,WindSpeedGustMPH,Humidity,HourlyPrecipIn,Conditions,Clouds,dailyrainin,SoftwareType,DateUTC
2013-11-27 00:02:00,38.0,25.0,-100.00,North,-999,-999.0,-999.0,60,0.00,,,0.00,,2013-11-27 06:02:00,
2013-11-27 00:22:00,37.0,26.0,-100.00,North,-999,-999.0,-999.0,63,-99.99,,,0.00,,2013-11-27 06:22:00,
2013-11-27 00:32:00,37.0,26.0,-100.00,North,-999,-999.0,-999.0,63,-99.99,,,0.00,,2013-11-27 06:32:00,
2013-11-27 00:52:00,36.0,27.0,-100.00,North,-999,-999.0,-999.0,67,-99.99,,,0.00,,2013-11-27 06:52:00,
2013-11-27 01:22:00,36.0,27.0,-100.00,North,-999,-999.0,-999.0,71,0.00,,,-99.99,,2013-11-27 07:22:00,
2013-11-27 01:32:00,36.0,27.0,-100.00,North,-999,-999.0,-999.0,71,0.00,,,-99.99,,2013-11-27 07:32:00,
2013-11-27 01:52:00,35.0,27.0,-100.00,North,-999,-999.0,-999.0,72,0.00,,,0.00,,2013-11-27 07:52:00,
2013-11-27 02:02:00,35.0,27.0,-100.00,North,-999,-999.0,-999.0,72,0.00,,,0.00,,2013-11-27 08:02:00,
2013-11-27 02:21:00,35.0,26.0,-100.00,North,-999,-999.0,-999.0,69,0.00,,,-99.99,,2013-11-27 08:21:00,
2013-11-27 02:43:00,34.0,26.0,-100.00,North,-999,-999.0,-999.0,72,0.00,,,0.00,,2013-11-27 08:43:00,
2013-11-27 02:52:00,34.0,26.0,-100.00,North,-999,-999.0,-999.0,72,0.00,,,0.00,,2013-11-27 08:52:00,
2013-11-27 03:02:00,34.0,26.0,-100.00,North,-999,-999.0,-999.0,72,0.00,,,0.00,,2013-11-27 09:02:00,
2013-11-27 03:22:00,35.0,24.0,-100.00,North,-999,-999.0,-999.0,64,0.00,,,-99.99,,2013-11-27 09:22:00,
2013-11-27 03:33:00,35.0,24.0,-100.00,North,-999,-999.0,-999.0,64,0.00,,,-99.99,,2013-11-27 09:33:00,
2013-11-27 03:43:00,35.0,24.0,-100.00,North,-999,-999.0,-999.0,64,0.00,,,-99.99,,2013-11-27 09:43:00,
2013-11-27 03:54:00,35.0,24.0,-100.00,North,-999,-999.0,-999.0,64,0.00,,,-99.99,,2013-11-27 09:54:00,
2013-11-27 04:23:00,33.0,23.0,-100.00,North,-999,-999.0,-999.0,65,0.00,,,0.00,,2013-11-27 10:23:00,
2013-11-27 04:52:00,32.0,24.0,-100.00,North,-999,-999.0,-999.0,71,0.00,,,0.00,,2013-11-27 10:52:00,
2013-11-27 05:22:00,30.0,23.0,-100.00,North,-999,-999.0,-999.0,75,0.00,,,0.00,,2013-11-27 11:22:00,
2013-11-27 05:42:00,30.0,24.0,-100.00,North,-999,-999.0,-999.0,76,0.00,,,0.00,,2013-11-27 11:42:00,
2013-11-27 05:53:00,30.0,24.0,-100.00,North,-999,-999.0,-999.0,76,0.00,,,0.00,,2013-11-27 11:53:00,
2013-11-27 06:22:00,29.0,23.0,-100.00,North,-999,-999.0,-999.0,79,0.00,,,0.00,,2013-11-27 12:22:00,
2013-11-27 06:52:00,28.0,23.0,-100.00,North,-999,-999.0,-999.0,81,0.00,,,0.00,,2013-11-27 12:52:00,
2013-11-27 07:22:00,27.0,23.0,-100.00,North,-999,-999.0,-999.0,83,0.00,,,0.00,,2013-11-27 13:22:00,
2013-11-27 07:52:00,27.0,23.0,-100.00,North,-999,-999.0,-999.0,85,0.00,,,0.00,,2013-11-27 13:52:00,
2013-11-27 08:22:00,28.0,24.0,-100.00,North,-999,-999.0,-999.0,83,0.00,,,-99.99,,2013-11-27 14:22:00,
2013-11-27 08:53:00,30.0,24.0,-100.00,North,-999,-999.0,-999.0,77,0.00,,,0.00,,2013-11-27 14:53:00,
2013-11-27 09:11:00,31.0,21.0,-100.00,North,-999,-999.0,-999.0,68,0.00,,,0.00,,2013-11-27 15:11:00,
2013-11-27 09:22:00,31.0,21.0,-100.00,North,-999,-999.0,-999.0,68,0.00,,,0.00,,2013-11-27 15:22:00,
2013-11-27 09:44:00,32.0,20.0,-100.00,North,-999,-999.0,-999.0,60,0.00,,,0.00,,2013-11-27 15:44:00,
2013-11-27 09:53:00,32.0,20.0,-100.00,North,-999,-999.0,-999.0,60,0.00,,,0.00,,2013-11-27 15:53:00,
2013-11-27 10:24:00,35.0,15.0,-100.00,North,-999,-999.0,-999.0,44,-99.99,,,0.00,,2013-11-27 16:24:00,
2013-11-27 10:33:00,35.0,15.0,-100.00,North,-999,-999.0,-999.0,44,-99.99,,,0.00,,2013-11-27 16:33:00,
2013-11-27 10:43:00,35.0,15.0,-100.00,North,-999,-999.0,-999.0,44,-99.99,,,0.00,,2013-11-27 16:43:00,
2013-11-27 10:53:00,35.0,15.0,-100.00,North,-999,-999.0,-999.0,44,-99.99,,,0.00,,2013-11-27 16:53:00,
2013-11-27 11:52:00,39.0,16.0,-100.00,North,-999,-999.0,-999.0,39,-99.99,,,0.00,,2013-11-27 17:52:00,
2013-11-27 12:12:00,39.0,15.0,-100.00,North,-999,-999.0,-999.0,37,-99.99,,,0.00,,2013-11-27 18:12:00,
2013-11-27 12:22:00,39.0,15.0,-100.00,North,-999,-999.0,-999.0,37,-99.99,,,0.00,,2013-11-27 18:22:00,
2013-11-27 12:32:00,39.0,15.0,-100.00,North,-999,-999.0,-999.0,37,-99.99,,,0.00,,2013-11-27 18:32:00,
2013-11-27 12:52:00,41.0,15.0,-100.00,North,-999,-999.0,-999.0,36,0.00,,,0.00,,2013-11-27 18:52:00,
2013-11-27 13:21:00,42.0,16.0,-100.00,North,-999,-999.0,-999.0,34,-99.99,,,0.00,,2013-11-27 19:21:00,
2013-11-27 13:52:00,43.0,16.0,-100.00,North,-999,-999.0,-999.0,34,0.00,,,0.00,,2013-11-27 19:52:00,
2013-11-27 14:22:00,44.0,18.0,-100.00,North,-999,-999.0,-999.0,35,0.00,,,0.00,,2013-11-27 20:22:00,
2013-11-27 14:42:00,45.0,15.0,-100.00,North,-999,-999.0,-999.0,30,0.00,,,0.00,,2013-11-27 20:42:00,
2013-11-27 14:52:00,45.0,15.0,-100.00,North,-999,-999.0,-999.0,30,0.00,,,0.00,,2013-11-27 20:52:00,
2013-11-27 15:02:00,45.0,15.0,-100.00,North,-999,-999.0,-999.0,30,0.00,,,0.00,,2013-11-27 21:02:00,
2013-11-27 15:22:00,47.0,17.0,-100.00,North,-999,-999.0,-999.0,31,0.00,,,-99.99,,2013-11-27 21:22:00,
2013-11-27 15:42:00,46.0,14.0,-100.00,North,-999,-999.0,-999.0,27,0.00,,,0.00,,2013-11-27 21:42:00,
2013-11-27 15:53:00,46.0,13.0,-100.00,North,-999,-999.0,-999.0,26,-99.99,,,0.00,,2013-11-27 21:53:00,
2013-11-27 16:13:00,46.0,14.0,-100.00,North,-999,-999.0,-999.0,27,0.00,,,0.00,,2013-11-27 22:13:00,
2013-11-27 16:23:00,46.0,14.0,-100.00,North,-999,-999.0,-999.0,27,0.00,,,0.00,,2013-11-27 22:23:00,
2013-11-27 16:33:00,46.0,14.0,-100.00,North,-999,-999.0,-999.0,27,0.00,,,0.00,,2013-11-27 22:33:00,